Time;durP1;ratioP1;P1;durP2;ratioP2;P2;SDS_P1;SDS_P2;PMS_P1;PMS_P2;Temp;Humidity;BMP_temperature;BMP_pressure;BME280_temperature;BME280_humidity;BME280_pressure;Samples;Min_cycle;Max_cycle;Signal;HPM_P1;HPM_P2
2023/08/29 00:00:57;;;;;;;;;;;;;;;18.94;60.66;95826.47;5054329;28;19921;-65
2023/08/29 00:03:27;;;;;;;;;;;;;;;18.92;60.48;95824.94;5053913;28;19920;-65
2023/08/29 00:05:59;;;;;;;;;;;;;;;18.89;60.44;95822.53;5054092;28;19927;-66
2023/08/29 00:08:26;;;;;;;;;;;;;;;18.73;61.13;95823.84;5053989;28;19921;-65
2023/08/29 00:10:57;;;;;;;;;;;;;;;18.71;61.27;95814.31;5054184;28;19921;-65
2023/08/29 00:13:24;;;;;;;;;;;;;;;18.64;61.76;95817.50;5054043;28;19947;-65
2023/08/29 00:15:50;;;;;;;;;;;;;;;18.65;61.78;95826.25;5054243;28;19927;-65
2023/08/29 00:18:19;;;;;;;;;;;;;;;18.66;61.94;95825.31;5054136;28;19920;-65
2023/08/29 00:20:45;;;;;;;;;;;;;;;18.71;61.73;95838.16;5053955;28;19924;-65
2023/08/29 00:23:12;;;;;;;;;;;;;;;18.66;61.84;95841.19;5053803;28;19924;-65
2023/08/29 00:25:39;;;;;;;;;;;;;;;18.65;61.77;95839.50;5053886;28;19920;-65
2023/08/29 00:28:07;;;;;;;;;;;;;;;18.68;61.65;95839.25;5053722;28;19975;-65
2023/08/29 00:30:34;;;;;;;;;;;;;;;18.67;61.93;95848.16;5053767;28;19921;-65
2023/08/29 00:33:01;;;;;;;;;;;;;;;18.66;62.00;95843.84;5053736;28;20444;-65
2023/08/29 00:35:27;;;;;;;;;;;;;;;18.60;62.11;95842.53;5053702;28;20343;-65
2023/08/29 00:37:54;;;;;;;;;;;;;;;18.49;61.68;95838.13;5053722;28;19924;-65
2023/08/29 00:40:21;;;;;;;;;;;;;;;18.36;62.52;95832.97;5053600;28;19921;-65
2023/08/29 00:42:48;;;;;;;;;;;;;;;18.28;62.87;95836.25;5053610;28;19927;-65
2023/08/29 00:45:16;;;;;;;;;;;;;;;18.15;63.13;95833.72;5053576;28;20021;-65
2023/08/29 00:47:43;;;;;;;;;;;;;;;18.06;63.17;95829.13;5053599;28;19970;-65
2023/08/29 00:50:10;;;;;;;;;;;;;;;17.92;63.84;95831.09;5053467;28;19967;-65
2023/08/29 00:52:37;;;;;;;;;;;;;;;17.90;63.81;95829.53;5053445;28;20287;-65
2023/08/29 00:55:04;;;;;;;;;;;;;;;17.82;64.11;95824.81;5053592;28;19971;-65
2023/08/29 00:57:30;;;;;;;;;;;;;;;17.74;64.16;95827.25;5053423;28;19921;-65
2023/08/29 00:59:57;;;;;;;;;;;;;;;17.61;64.62;95825.56;5053481;28;20027;-65
2023/08/29 01:02:25;;;;;;;;;;;;;;;17.64;64.66;95827.97;5053478;28;19959;-65
2023/08/29 01:04:52;;;;;;;;;;;;;;;17.68;64.42;95823.28;5053469;28;19920;-66
2023/08/29 01:07:19;;;;;;;;;;;;;;;17.75;64.32;95819.19;5053385;28;19921;-65
2023/08/29 01:09:45;;;;;;;;;;;;;;;17.84;64.24;95816.78;5053283;28;19931;-65
2023/08/29 01:12:16;;;;;;;;;;;;;;;17.87;64.38;95817.38;5053315;28;19967;-65
2023/08/29 01:14:46;;;;;;;;;;;;;;;17.87;63.93;95812.09;5053330;28;20019;-65
2023/08/29 01:17:17;;;;;;;;;;;;;;;17.90;63.63;95803.91;5056900;28;20394;-65
2023/08/29 01:19:48;;;;;;;;;;;;;;;17.93;63.72;95808.97;5057547;28;19921;-65
2023/08/29 01:22:23;;;;;;;;;;;;;;;17.90;63.63;95806.56;5057065;28;19925;-65
2023/08/29 01:24:53;;;;;;;;;;;;;;;17.84;63.76;95803.56;5057291;28;19924;-65
2023/08/29 01:27:21;;;;;;;;;;;;;;;17.83;63.82;95791.28;5057144;28;20011;-65
2023/08/29 01:29:49;;;;;;;;;;;;;;;17.83;63.61;95788.66;5057028;28;19927;-65
2023/08/29 01:32:16;;;;;;;;;;;;;;;17.84;63.65;95791.19;5057095;28;19921;-65
2023/08/29 01:34:44;;;;;;;;;;;;;;;17.84;63.64;95787.69;5057102;28;20007;-65
2023/08/29 01:37:10;;;;;;;;;;;;;;;17.81;63.71;95786.97;5057144;28;19921;-65
2023/08/29 01:39:37;;;;;;;;;;;;;;;17.77;63.34;95779.41;5057003;28;19944;-65
2023/08/29 01:42:04;;;;;;;;;;;;;;;17.74;63.96;95785.78;5056880;28;19927;-65
2023/08/29 01:44:32;;;;;;;;;;;;;;;17.70;63.85;95778.22;5056891;28;19925;-65
2023/08/29 01:46:59;;;;;;;;;;;;;;;17.57;63.98;95783.63;5056870;28;20007;-65
2023/08/29 01:49:26;;;;;;;;;;;;;;;17.51;63.94;95780.50;5056868;28;19968;-65
2023/08/29 01:51:53;;;;;;;;;;;;;;;17.52;64.13;95787.47;5056590;28;19920;-65
2023/08/29 01:54:20;;;;;;;;;;;;;;;17.55;63.93;95775.81;5056645;28;19920;-65
2023/08/29 01:56:47;;;;;;;;;;;;;;;17.58;63.68;95772.91;5056585;28;19960;-65
2023/08/29 01:59:13;;;;;;;;;;;;;;;17.57;63.72;95768.59;5056532;28;20007;-65
2023/08/29 02:01:42;;;;;;;;;;;;;;;17.51;63.87;95771.72;5056705;28;19921;-65
2023/08/29 02:04:09;;;;;;;;;;;;;;;17.39;64.04;95762.94;5056565;28;20383;-65
2023/08/29 02:06:35;;;;;;;;;;;;;;;17.21;63.72;95766.06;5056599;28;19927;-65
2023/08/29 02:09:02;;;;;;;;;;;;;;;17.17;63.81;95765.47;5056318;28;20016;-65
2023/08/29 02:11:30;;;;;;;;;;;;;;;17.17;64.20;95757.56;5056589;28;19921;-65
2023/08/29 02:13:56;;;;;;;;;;;;;;;17.17;64.41;95760.19;5056307;28;19967;-65
2023/08/29 02:16:24;;;;;;;;;;;;;;;17.10;64.56;95758.13;5056269;28;19968;-65
2023/08/29 02:18:52;;;;;;;;;;;;;;;17.09;64.70;95761.72;5056196;28;19920;-65
2023/08/29 02:21:19;;;;;;;;;;;;;;;17.05;64.57;95758.44;5055800;28;20326;-65
2023/08/29 02:23:46;;;;;;;;;;;;;;;17.04;64.38;95754.13;5055103;28;19924;-65
2023/08/29 02:26:12;;;;;;;;;;;;;;;17.05;64.14;95755.81;5054554;28;19931;-65
2023/08/29 02:28:39;;;;;;;;;;;;;;;17.03;63.87;95755.06;5054849;28;19976;-65
2023/08/29 02:31:07;;;;;;;;;;;;;;;16.98;64.10;95750.13;5054846;28;19967;-65
2023/08/29 02:33:34;;;;;;;;;;;;;;;16.97;63.77;95750.25;5054867;28;20015;-65
2023/08/29 02:36:04;;;;;;;;;;;;;;;16.95;64.23;95750.41;5054969;28;19974;-65
2023/08/29 02:38:30;;;;;;;;;;;;;;;16.92;64.11;95754.09;5054820;28;19947;-65
2023/08/29 02:40:57;;;;;;;;;;;;;;;16.92;63.96;95759.38;5054813;28;19967;-65
2023/08/29 02:43:24;;;;;;;;;;;;;;;16.93;63.64;95755.81;5054744;28;19979;-65
2023/08/29 02:45:51;;;;;;;;;;;;;;;16.87;63.77;95758.91;5054597;28;19920;-65
2023/08/29 02:48:18;;;;;;;;;;;;;;;16.83;63.86;95756.59;5054566;28;19967;-65
2023/08/29 02:50:48;;;;;;;;;;;;;;;16.77;63.90;95760.56;5054472;28;19947;-65
2023/08/29 02:53:17;;;;;;;;;;;;;;;16.73;63.85;95757.31;5054550;28;19999;-65
2023/08/29 02:55:43;;;;;;;;;;;;;;;16.67;63.43;95763.03;5054537;28;20015;-65
2023/08/29 02:58:10;;;;;;;;;;;;;;;16.48;62.98;95764.44;5054383;28;19982;-65
2023/08/29 03:00:37;;;;;;;;;;;;;;;16.52;63.41;95757.97;5054536;28;19927;-65
2023/08/29 03:03:04;;;;;;;;;;;;;;;16.53;63.43;95759.63;5054499;28;19921;-65
2023/08/29 03:05:31;;;;;;;;;;;;;;;16.39;63.94;95758.03;5054354;28;19921;-65
2023/08/29 03:07:58;;;;;;;;;;;;;;;16.37;63.93;95761.72;5054258;28;19928;-65
2023/08/29 03:10:26;;;;;;;;;;;;;;;16.30;64.37;95766.63;5054214;28;19927;-65
2023/08/29 03:12:53;;;;;;;;;;;;;;;16.24;64.27;95769.72;5054264;28;19925;-65
2023/08/29 03:15:19;;;;;;;;;;;;;;;16.18;64.19;95768.38;5054253;28;19967;-65
2023/08/29 03:17:47;;;;;;;;;;;;;;;16.17;64.25;95764.88;5054178;28;19928;-65
2023/08/29 03:20:14;;;;;;;;;;;;;;;16.17;64.13;95772.78;5054087;28;19921;-64
2023/08/29 03:22:41;;;;;;;;;;;;;;;16.19;63.91;95770.03;5007502;28;1351021;-65
2023/08/29 03:25:09;;;;;;;;;;;;;;;16.19;64.06;95766.59;5054978;28;19921;-65
2023/08/29 03:27:37;;;;;;;;;;;;;;;16.12;63.98;95767.03;5055002;28;19920;-65
2023/08/29 03:30:04;;;;;;;;;;;;;;;16.13;64.27;95766.06;5054801;28;19971;-65
2023/08/29 03:32:31;;;;;;;;;;;;;;;16.16;63.79;95767.63;5054839;28;20401;-64
2023/08/29 03:34:58;;;;;;;;;;;;;;;16.07;63.91;95770.94;5054803;28;20011;-65
2023/08/29 03:37:25;;;;;;;;;;;;;;;16.02;64.00;95768.66;5054795;28;20345;-65
2023/08/29 03:39:51;;;;;;;;;;;;;;;16.00;64.03;95765.25;5054167;28;19920;-65
2023/08/29 03:42:18;;;;;;;;;;;;;;;15.94;64.01;95758.63;5055121;28;20285;-65
2023/08/29 03:44:46;;;;;;;;;;;;;;;15.92;64.13;95756.09;5054566;28;19951;-65
2023/08/29 03:47:13;;;;;;;;;;;;;;;15.87;64.20;95757.38;5054612;28;19972;-65
2023/08/29 03:49:40;;;;;;;;;;;;;;;15.83;64.29;95756.75;5054559;28;20394;-65
2023/08/29 03:52:07;;;;;;;;;;;;;;;15.77;64.58;95754.53;5054593;28;19925;-65
2023/08/29 03:54:33;;;;;;;;;;;;;;;15.77;64.75;95755.38;5054573;28;19924;-64
2023/08/29 03:57:00;;;;;;;;;;;;;;;15.78;65.10;95756.25;5054371;28;19921;-65
2023/08/29 03:59:27;;;;;;;;;;;;;;;15.85;64.92;95751.34;5054304;28;20382;-65
2023/08/29 04:01:55;;;;;;;;;;;;;;;15.85;64.86;95752.22;5054344;28;19921;-64
2023/08/29 04:04:22;;;;;;;;;;;;;;;15.85;65.27;95746.94;5054252;28;19921;-65
2023/08/29 04:06:49;;;;;;;;;;;;;;;15.90;65.20;95743.97;5054364;28;20294;-65
2023/08/29 04:09:15;;;;;;;;;;;;;;;15.96;65.35;95746.19;5053986;28;19982;-65
2023/08/29 04:11:42;;;;;;;;;;;;;;;16.04;65.06;95741.19;5054279;28;19920;-64
2023/08/29 04:14:09;;;;;;;;;;;;;;;16.08;65.04;95741.81;5054090;28;19920;-65
2023/08/29 04:16:36;;;;;;;;;;;;;;;16.21;65.25;95747.03;5054046;28;19971;-65
2023/08/29 04:19:04;;;;;;;;;;;;;;;16.46;64.87;95747.84;5053908;28;20397;-65
2023/08/29 04:21:31;;;;;;;;;;;;;;;16.84;63.91;95748.56;5053746;28;20011;-64
2023/08/29 04:23:58;;;;;;;;;;;;;;;17.10;62.89;95755.50;5054119;28;19921;-64
2023/08/29 04:26:25;;;;;;;;;;;;;;;17.35;62.35;95749.16;5053896;28;19966;-65
2023/08/29 04:28:51;;;;;;;;;;;;;;;17.75;61.24;95742.50;5053752;28;19974;-64
2023/08/29 04:31:19;;;;;;;;;;;;;;;18.23;60.13;95740.50;5053859;28;19967;-65
2023/08/29 04:33:46;;;;;;;;;;;;;;;18.78;58.67;95733.41;5053775;28;19927;-65
2023/08/29 04:36:17;;;;;;;;;;;;;;;19.37;57.23;95727.59;5053791;28;19921;-65
2023/08/29 04:38:45;;;;;;;;;;;;;;;19.99;55.58;95729.31;5053722;28;19921;-65
2023/08/29 04:41:12;;;;;;;;;;;;;;;20.60;53.64;95732.72;5053617;28;20362;-65
2023/08/29 04:43:39;;;;;;;;;;;;;;;21.16;52.37;95729.47;5053576;28;19921;-65
2023/08/29 04:46:07;;;;;;;;;;;;;;;21.65;51.06;95731.06;5053545;28;19925;-65
2023/08/29 04:48:34;;;;;;;;;;;;;;;22.10;50.33;95724.13;5053497;28;20386;-65
2023/08/29 04:51:01;;;;;;;;;;;;;;;22.61;49.29;95728.13;5053359;28;20016;-65
2023/08/29 04:53:29;;;;;;;;;;;;;;;23.02;47.99;95723.09;5053429;28;19920;-65
2023/08/29 04:56:00;;;;;;;;;;;;;;;23.44;47.16;95724.19;5053450;28;20345;-65
2023/08/29 04:58:27;;;;;;;;;;;;;;;23.87;46.49;95720.69;5053586;28;19920;-65
2023/08/29 05:00:54;;;;;;;;;;;;;;;24.24;45.95;95721.31;5053451;28;19925;-65
2023/08/29 05:03:21;;;;;;;;;;;;;;;24.53;44.36;95721.88;5053413;28;19975;-65
2023/08/29 05:05:48;;;;;;;;;;;;;;;24.97;43.20;95720.69;5053433;28;19928;-65
2023/08/29 05:08:15;;;;;;;;;;;;;;;25.43;42.99;95720.09;5053368;28;19921;-66
2023/08/29 05:10:43;;;;;;;;;;;;;;;26.02;42.83;95718.03;5053423;28;19972;-65
2023/08/29 05:13:10;;;;;;;;;;;;;;;26.54;42.16;95726.44;5053409;28;19928;-65
2023/08/29 05:15:37;;;;;;;;;;;;;;;27.05;41.49;95724.22;5053444;28;19928;-65
2023/08/29 05:18:04;;;;;;;;;;;;;;;27.47;40.02;95722.78;5053392;28;19925;-64
2023/08/29 05:20:31;;;;;;;;;;;;;;;27.82;39.32;95730.31;5053272;28;20414;-66
2023/08/29 05:22:59;;;;;;;;;;;;;;;28.25;38.59;95726.88;5053139;28;20272;-65
2023/08/29 05:25:25;;;;;;;;;;;;;;;28.57;37.79;95725.75;5053213;28;19920;-65
2023/08/29 05:27:54;;;;;;;;;;;;;;;28.97;37.54;95725.31;5053143;28;19928;-65
2023/08/29 05:30:20;;;;;;;;;;;;;;;29.25;36.51;95732.53;5053229;28;19924;-65
2023/08/29 05:32:47;;;;;;;;;;;;;;;29.55;36.89;95724.28;5053004;28;20313;-65
2023/08/29 05:35:14;;;;;;;;;;;;;;;29.82;36.65;95723.56;5053131;28;19994;-65
2023/08/29 05:37:41;;;;;;;;;;;;;;;30.08;35.86;95722.84;5053107;28;19921;-66
2023/08/29 05:40:08;;;;;;;;;;;;;;;30.44;34.26;95725.47;5053081;28;19968;-65
2023/08/29 05:42:35;;;;;;;;;;;;;;;30.74;33.89;95730.50;5053005;28;19921;-66
2023/08/29 05:45:04;;;;;;;;;;;;;;;30.93;34.85;95734.25;5053171;28;19920;-65
2023/08/29 05:47:30;;;;;;;;;;;;;;;31.26;35.43;95735.28;5053114;28;19927;-66
2023/08/29 05:49:57;;;;;;;;;;;;;;;31.56;33.83;95731.31;5052861;28;19921;-66
2023/08/29 05:52:24;;;;;;;;;;;;;;;31.90;33.29;95740.16;5052992;28;19921;-65
2023/08/29 05:54:51;;;;;;;;;;;;;;;32.14;33.15;95733.22;5052881;28;19920;-65
2023/08/29 05:57:18;;;;;;;;;;;;;;;32.28;31.63;95738.56;5052944;28;19921;-66
2023/08/29 05:59:44;;;;;;;;;;;;;;;32.44;30.37;95725.59;5052911;28;19928;-66
2023/08/29 06:02:12;;;;;;;;;;;;;;;32.52;31.02;95731.59;5054533;28;19920;-66
2023/08/29 06:04:39;;;;;;;;;;;;;;;32.54;29.61;95739.50;5056534;28;20390;-66
2023/08/29 06:07:07;;;;;;;;;;;;;;;32.72;31.65;95737.91;5056523;28;19983;-66
2023/08/29 06:09:34;;;;;;;;;;;;;;;32.94;31.22;95740.25;5056542;28;19924;-67
2023/08/29 06:12:00;;;;;;;;;;;;;;;33.02;31.90;95738.09;5056228;28;20354;-66
2023/08/29 06:14:27;;;;;;;;;;;;;;;33.22;32.00;95741.69;5056581;28;19920;-66
2023/08/29 06:16:54;;;;;;;;;;;;;;;33.27;30.32;95731.03;5056503;28;19921;-67
2023/08/29 06:19:23;;;;;;;;;;;;;;;33.35;30.08;95732.66;5056338;28;20401;-68
2023/08/29 06:21:50;;;;;;;;;;;;;;;33.47;31.15;95733.53;5055927;28;19924;-66
2023/08/29 06:24:16;;;;;;;;;;;;;;;33.50;29.87;95740.41;5056200;28;20363;-67
2023/08/29 06:26:43;;;;;;;;;;;;;;;33.59;29.85;95735.56;5056226;28;20307;-67
2023/08/29 06:29:10;;;;;;;;;;;;;;;33.81;30.07;95727.81;5056038;28;20390;-66
2023/08/29 06:31:37;;;;;;;;;;;;;;;34.08;30.07;95732.06;5055928;28;19967;-67
2023/08/29 06:34:05;;;;;;;;;;;;;;;34.32;29.28;95729.50;5055917;28;19925;-67
2023/08/29 06:36:33;;;;;;;;;;;;;;;34.52;26.09;95724.59;5055896;28;19921;-67
2023/08/29 06:39:00;;;;;;;;;;;;;;;34.69;23.97;95725.84;5056091;28;19928;-67
2023/08/29 06:41:27;;;;;;;;;;;;;;;34.82;24.52;95722.13;5055922;28;19921;-67
2023/08/29 06:43:55;;;;;;;;;;;;;;;34.99;22.76;95733.13;5055787;28;19927;-67
2023/08/29 06:46:22;;;;;;;;;;;;;;;35.08;24.85;95739.88;5055808;28;20385;-67
2023/08/29 06:48:49;;;;;;;;;;;;;;;35.26;24.00;95732.69;5055771;28;20282;-68
2023/08/29 06:51:16;;;;;;;;;;;;;;;35.46;23.21;95742.41;5055506;28;20031;-67
2023/08/29 06:53:44;;;;;;;;;;;;;;;35.62;22.06;95740.84;5055743;28;19925;-67
2023/08/29 06:56:11;;;;;;;;;;;;;;;35.51;22.45;95739.78;5055610;28;19966;-67
2023/08/29 06:58:38;;;;;;;;;;;;;;;35.64;21.78;95739.53;5055454;28;19921;-68
2023/08/29 07:01:05;;;;;;;;;;;;;;;35.84;21.87;95738.34;5055457;28;20015;-67
2023/08/29 07:03:32;;;;;;;;;;;;;;;35.93;22.62;95738.81;5055408;28;20313;-66
2023/08/29 07:05:59;;;;;;;;;;;;;;;35.98;22.30;95743.53;5055407;28;19924;-68
2023/08/29 07:08:26;;;;;;;;;;;;;;;36.02;20.85;95741.97;5055316;28;20367;-67
2023/08/29 07:10:54;;;;;;;;;;;;;;;36.14;21.09;95747.38;5055277;28;20008;-66
2023/08/29 07:13:21;;;;;;;;;;;;;;;35.02;20.09;95744.34;5054188;28;20458;-68
2023/08/29 07:15:47;;;;;;;;;;;;;;;34.72;21.34;95744.41;5055246;28;19921;-67
2023/08/29 07:18:14;;;;;;;;;;;;;;;34.60;21.59;95742.47;5055230;28;19924;-66
2023/08/29 07:20:41;;;;;;;;;;;;;;;34.56;21.33;95738.56;5055379;28;19928;-66
2023/08/29 07:23:08;;;;;;;;;;;;;;;34.73;22.48;95736.03;5054909;28;19920;-66
2023/08/29 07:25:38;;;;;;;;;;;;;;;35.01;21.86;95742.72;5055093;28;20332;-68
2023/08/29 07:28:08;;;;;;;;;;;;;;;35.22;20.91;95739.69;5055181;28;19920;-67
2023/08/29 07:30:35;;;;;;;;;;;;;;;35.42;21.44;95739.31;5055076;28;19921;-67
2023/08/29 07:33:02;;;;;;;;;;;;;;;35.61;21.65;95740.03;5055054;28;19921;-67
2023/08/29 07:35:29;;;;;;;;;;;;;;;35.73;21.68;95736.50;5054789;28;19927;-66
2023/08/29 07:37:55;;;;;;;;;;;;;;;36.01;20.54;95734.88;5054814;28;19921;-67
2023/08/29 07:40:22;;;;;;;;;;;;;;;35.95;20.54;95733.97;5054744;28;19925;-68
2023/08/29 07:42:49;;;;;;;;;;;;;;;35.96;21.49;95735.59;5054772;28;20007;-68
2023/08/29 07:45:18;;;;;;;;;;;;;;;35.78;21.72;95728.44;5054719;28;20023;-66
2023/08/29 07:47:44;;;;;;;;;;;;;;;35.73;20.97;95731.06;5054564;28;19921;-67
2023/08/29 07:50:11;;;;;;;;;;;;;;;35.89;21.06;95737.63;5054501;28;19921;-67
2023/08/29 07:52:38;;;;;;;;;;;;;;;35.68;21.36;95731.75;5054598;28;19940;-66
2023/08/29 07:55:05;;;;;;;;;;;;;;;35.44;22.43;95742.63;5054626;28;19984;-67
2023/08/29 07:57:32;;;;;;;;;;;;;;;35.07;23.07;95732.78;5054588;28;19920;-66
2023/08/29 07:59:59;;;;;;;;;;;;;;;34.86;23.18;95732.28;5054807;28;20015;-68
2023/08/29 08:02:28;;;;;;;;;;;;;;;34.70;23.41;95732.97;5054491;28;19982;-67
2023/08/29 08:04:54;;;;;;;;;;;;;;;34.76;24.02;95737.47;5054428;28;20007;-67
2023/08/29 08:07:21;;;;;;;;;;;;;;;34.98;23.06;95737.75;5054542;28;19927;-66
2023/08/29 08:09:48;;;;;;;;;;;;;;;35.03;23.39;95737.84;5054443;28;19920;-67
2023/08/29 08:12:15;;;;;;;;;;;;;;;34.76;24.31;95734.75;5054420;28;19986;-67
2023/08/29 08:14:42;;;;;;;;;;;;;;;34.64;24.93;95716.50;5054543;28;19921;-66
2023/08/29 08:17:08;;;;;;;;;;;;;;;35.03;24.46;95720.72;5054282;28;19927;-66
2023/08/29 08:19:37;;;;;;;;;;;;;;;35.02;23.32;95722.63;5054270;28;19980;-66
2023/08/29 08:22:04;;;;;;;;;;;;;;;34.91;24.89;95718.81;5054255;28;19928;-66
2023/08/29 08:24:31;;;;;;;;;;;;;;;35.05;24.47;95713.19;5053635;28;19950;-67
2023/08/29 08:26:58;;;;;;;;;;;;;;;34.87;24.64;95716.81;5054195;28;20337;-67
2023/08/29 08:29:25;;;;;;;;;;;;;;;34.83;25.81;95716.47;5054125;28;19966;-66
2023/08/29 08:31:51;;;;;;;;;;;;;;;34.59;26.04;95710.13;5053691;28;19921;-67
2023/08/29 08:34:18;;;;;;;;;;;;;;;34.76;26.23;95704.91;5053968;28;19929;-67
2023/08/29 08:36:47;;;;;;;;;;;;;;;34.71;25.88;95712.91;5053904;28;19928;-67
2023/08/29 08:39:14;;;;;;;;;;;;;;;34.72;26.05;95715.38;5053834;28;19927;-67
2023/08/29 08:41:40;;;;;;;;;;;;;;;34.73;25.87;95700.72;5054339;28;19921;-66
2023/08/29 08:44:09;;;;;;;;;;;;;;;34.76;26.22;95710.31;5053989;28;20370;-66
2023/08/29 08:46:37;;;;;;;;;;;;;;;34.80;26.96;95706.06;5053901;28;19920;-67
2023/08/29 08:49:04;;;;;;;;;;;;;;;34.97;25.47;95711.63;5053953;28;19921;-67
2023/08/29 08:51:32;;;;;;;;;;;;;;;34.96;26.36;95701.00;5053865;28;19927;-67
2023/08/29 08:54:02;;;;;;;;;;;;;;;35.09;25.82;95699.97;5053821;28;19983;-66
2023/08/29 08:56:32;;;;;;;;;;;;;;;34.99;26.39;95698.66;5053612;28;20285;-67
2023/08/29 08:58:59;;;;;;;;;;;;;;;34.33;26.26;95677.72;5053532;28;19927;-66
2023/08/29 09:01:28;;;;;;;;;;;;;;;34.46;26.77;95678.59;5053840;28;19931;-66
2023/08/29 09:03:55;;;;;;;;;;;;;;;34.69;26.54;95677.00;5053716;28;19959;-67
2023/08/29 09:06:22;;;;;;;;;;;;;;;34.70;27.09;95676.75;5053956;28;19924;-67
2023/08/29 09:08:49;;;;;;;;;;;;;;;34.80;26.83;95684.34;5053763;28;19943;-67
2023/08/29 09:11:19;;;;;;;;;;;;;;;34.94;25.91;95674.06;5053645;28;20397;-67
2023/08/29 09:13:47;;;;;;;;;;;;;;;34.72;25.94;95680.09;5053578;28;19986;-66
2023/08/29 09:16:14;;;;;;;;;;;;;;;34.72;25.55;95681.97;5053463;28;19920;-66
2023/08/29 09:18:43;;;;;;;;;;;;;;;34.68;26.20;95675.34;5053333;28;19927;-66
2023/08/29 09:21:16;;;;;;;;;;;;;;;34.71;26.03;95675.72;5052922;28;19928;-66
2023/08/29 09:23:44;;;;;;;;;;;;;;;34.27;26.43;95670.50;5053345;28;19920;-67
2023/08/29 09:26:11;;;;;;;;;;;;;;;34.28;26.43;95672.97;5053287;28;19942;-67
2023/08/29 09:28:40;;;;;;;;;;;;;;;34.15;26.89;95671.31;5053256;28;19974;-66
2023/08/29 09:31:08;;;;;;;;;;;;;;;33.98;26.80;95659.41;5053057;28;19925;-66
2023/08/29 09:33:35;;;;;;;;;;;;;;;34.09;27.39;95661.34;5053190;28;20359;-67
2023/08/29 09:36:02;;;;;;;;;;;;;;;34.26;26.79;95649.88;5053139;28;20019;-66
2023/08/29 09:38:29;;;;;;;;;;;;;;;34.28;27.29;95636.91;5057178;28;19967;-67
2023/08/29 09:40:56;;;;;;;;;;;;;;;34.49;26.91;95640.16;5056916;28;19921;-66
2023/08/29 09:43:23;;;;;;;;;;;;;;;34.35;26.12;95639.50;5056966;28;19966;-67
2023/08/29 09:45:52;;;;;;;;;;;;;;;33.60;27.32;95636.94;5056941;28;19971;-65
2023/08/29 09:48:19;;;;;;;;;;;;;;;33.44;27.84;95631.06;5057012;28;19927;-66
2023/08/29 09:50:46;;;;;;;;;;;;;;;33.56;27.36;95646.56;5056772;28;20410;-67
2023/08/29 09:53:15;;;;;;;;;;;;;;;33.64;27.67;95657.94;5056770;28;19928;-66
2023/08/29 09:55:44;;;;;;;;;;;;;;;33.80;27.42;95646.72;5056712;28;20342;-66
2023/08/29 09:58:12;;;;;;;;;;;;;;;33.93;27.56;95648.41;5056766;28;20286;-67
2023/08/29 10:00:40;;;;;;;;;;;;;;;33.99;27.32;95642.91;5056734;28;19920;-66
2023/08/29 10:03:09;;;;;;;;;;;;;;;34.07;27.57;95635.50;5056700;28;19974;-66
2023/08/29 10:05:37;;;;;;;;;;;;;;;34.27;27.62;95632.53;5056698;28;19925;-66
2023/08/29 10:08:06;;;;;;;;;;;;;;;34.34;25.71;95638.66;5056739;28;19947;-67
2023/08/29 10:10:34;;;;;;;;;;;;;;;33.73;25.95;95631.34;5056347;28;20301;-64
2023/08/29 10:13:02;;;;;;;;;;;;;;;33.54;26.94;95633.22;5056515;28;19921;-66
2023/08/29 10:15:31;;;;;;;;;;;;;;;33.38;27.06;95630.06;5056406;28;19920;-65
2023/08/29 10:17:58;;;;;;;;;;;;;;;33.61;27.31;95622.34;5056440;28;20004;-66
2023/08/29 10:20:27;;;;;;;;;;;;;;;33.64;27.33;95619.16;5056265;28;19920;-66
2023/08/29 10:22:55;;;;;;;;;;;;;;;33.55;27.28;95618.63;5056187;28;19920;-66
2023/08/29 10:25:23;;;;;;;;;;;;;;;33.52;27.53;95614.50;5056300;28;19958;-66
2023/08/29 10:27:51;;;;;;;;;;;;;;;33.65;27.94;95612.72;5056279;28;19921;-66
2023/08/29 10:30:18;;;;;;;;;;;;;;;33.95;27.31;95605.63;5056162;28;19920;-66
2023/08/29 10:32:46;;;;;;;;;;;;;;;34.04;27.53;95605.06;5056031;28;19920;-67
2023/08/29 10:35:18;;;;;;;;;;;;;;;34.21;27.44;95609.88;5056057;28;19921;-67
2023/08/29 10:37:47;;;;;;;;;;;;;;;34.25;28.02;95597.50;5056069;28;19957;-66
2023/08/29 10:40:15;;;;;;;;;;;;;;;34.37;27.21;95613.00;5055907;28;20003;-67
2023/08/29 10:42:53;;;;;;;;;;;;;;;34.21;26.84;95607.16;5055975;28;19920;-66
2023/08/29 10:45:23;;;;;;;;;;;;;;;33.41;27.38;95588.19;5055778;28;19929;-66
2023/08/29 10:47:50;;;;;;;;;;;;;;;33.64;28.39;95584.78;5055515;28;20327;-66
2023/08/29 10:50:21;;;;;;;;;;;;;;;33.89;27.64;95593.84;5055741;28;20362;-66
2023/08/29 10:52:54;;;;;;;;;;;;;;;33.92;27.68;95587.97;5055719;28;19933;-67
2023/08/29 10:55:22;;;;;;;;;;;;;;;34.05;27.22;95584.22;5055714;28;19925;-66
2023/08/29 10:57:50;;;;;;;;;;;;;;;34.18;26.65;95598.66;5055646;28;19924;-67
2023/08/29 11:00:19;;;;;;;;;;;;;;;34.09;26.49;95576.44;5055740;28;20021;-66
2023/08/29 11:02:47;;;;;;;;;;;;;;;34.22;26.78;95570.03;5055590;28;19927;-66
2023/08/29 11:05:15;;;;;;;;;;;;;;;34.29;26.80;95578.88;5055665;28;20042;-66
2023/08/29 11:07:42;;;;;;;;;;;;;;;34.35;26.92;95583.38;5055426;28;19921;-66
2023/08/29 11:13:11;;;;;;;;;;;;;;;34.41;26.63;95579.69;5071201;28;20371;-66
2023/08/29 11:16:01;;;;;;;;;;;;;;;34.46;27.37;95575.47;5070917;28;19925;-65
2023/08/29 11:18:32;;;;;;;;;;;;;;;34.45;26.44;95569.22;5060480;28;20279;-65
2023/08/29 11:21:04;;;;;;;;;;;;;;;34.14;26.58;95563.88;5070811;28;20424;-65
2023/08/29 11:23:34;;;;;;;;;;;;;;;34.27;27.51;95560.13;5070829;28;19925;-66
2023/08/29 11:26:01;;;;;;;;;;;;;;;34.44;26.45;95559.44;5070734;28;19925;-66
2023/08/29 11:28:31;;;;;;;;;;;;;;;34.43;26.73;95563.19;5070678;28;20329;-66
2023/08/29 11:30:58;;;;;;;;;;;;;;;34.55;26.46;95552.34;5070638;28;20396;-66
2023/08/29 11:33:30;;;;;;;;;;;;;;;34.60;26.19;95560.63;5070667;28;19924;-66
2023/08/29 11:35:57;;;;;;;;;;;;;;;34.57;26.31;95544.81;5071089;28;19978;-66
2023/08/29 11:38:26;;;;;;;;;;;;;;;34.24;25.70;95557.88;5070595;28;19924;-66
2023/08/29 11:40:54;;;;;;;;;;;;;;;34.11;26.82;95534.47;5070418;28;19935;-66
2023/08/29 11:43:22;;;;;;;;;;;;;;;34.28;26.32;95533.84;5070308;28;19928;-66
2023/08/29 11:45:50;;;;;;;;;;;;;;;34.22;25.91;95529.34;5070429;28;19932;-65
2023/08/29 11:48:23;;;;;;;;;;;;;;;33.94;26.04;95536.19;5070353;28;19929;-65
2023/08/29 11:50:52;;;;;;;;;;;;;;;33.81;26.24;95539.94;5070292;28;19931;-65
2023/08/29 11:53:22;;;;;;;;;;;;;;;33.67;26.41;95525.75;5070277;28;19931;-66
2023/08/29 11:55:50;;;;;;;;;;;;;;;33.69;26.25;95510.91;5070235;28;19960;-65
2023/08/29 11:58:17;;;;;;;;;;;;;;;33.82;27.16;95512.59;5070125;28;19933;-66
2023/08/29 12:00:44;;;;;;;;;;;;;;;33.82;26.38;95520.72;5069940;28;19963;-65
2023/08/29 12:03:13;;;;;;;;;;;;;;;33.93;26.37;95519.13;5069871;28;20374;-66
2023/08/29 12:05:41;;;;;;;;;;;;;;;34.14;26.92;95512.34;5070203;28;19924;-66
2023/08/29 12:08:08;;;;;;;;;;;;;;;34.38;26.13;95514.25;5069815;28;19931;-66
2023/08/29 12:10:35;;;;;;;;;;;;;;;34.50;25.50;95512.38;5069946;28;19924;-66
2023/08/29 12:13:12;;;;;;;;;;;;;;;34.32;25.57;95501.63;5089909;28;19929;-65
2023/08/29 12:15:39;;;;;;;;;;;;;;;34.36;24.94;95510.94;5090111;28;19986;-66
2023/08/29 12:18:06;;;;;;;;;;;;;;;34.32;25.21;95504.34;5089930;28;20015;-66
2023/08/29 12:20:36;;;;;;;;;;;;;;;34.07;25.25;95503.44;5090037;28;19995;-65
2023/08/29 12:23:03;;;;;;;;;;;;;;;33.55;26.17;95490.47;5084208;28;19925;-64
2023/08/29 12:25:31;;;;;;;;;;;;;;;33.43;26.83;95491.22;5076314;28;20018;-65
2023/08/29 12:27:58;;;;;;;;;;;;;;;33.49;26.19;95482.19;5076294;28;20382;-65
2023/08/29 12:30:25;;;;;;;;;;;;;;;33.50;25.79;95483.84;5076265;28;19947;-65
2023/08/29 12:32:53;;;;;;;;;;;;;;;33.60;26.43;95474.34;5076039;28;19924;-64
2023/08/29 12:35:20;;;;;;;;;;;;;;;33.75;26.66;95482.06;5076123;28;19970;-64
2023/08/29 12:37:48;;;;;;;;;;;;;;;33.91;25.99;95475.13;5075962;28;20019;-66
2023/08/29 12:40:15;;;;;;;;;;;;;;;33.88;25.11;95479.13;5076096;28;20389;-66
2023/08/29 12:42:43;;;;;;;;;;;;;;;33.71;25.55;95459.19;5076128;28;20003;-64
2023/08/29 12:45:10;;;;;;;;;;;;;;;33.56;25.42;95455.00;5075825;28;19924;-66
2023/08/29 12:47:38;;;;;;;;;;;;;;;33.65;25.93;95467.19;5075838;28;19977;-65
2023/08/29 12:50:06;;;;;;;;;;;;;;;33.58;25.15;95460.16;5075876;28;20337;-64
2023/08/29 12:52:33;;;;;;;;;;;;;;;33.30;25.54;95454.31;5075960;28;19925;-65